Time;durP1;ratioP1;P1;durP2;ratioP2;P2;SDS_P1;SDS_P2;PMS_P1;PMS_P2;Temp;Humidity;BMP_temperature;BMP_pressure;BME280_temperature;BME280_humidity;BME280_pressure;Samples;Min_cycle;Max_cycle;Signal;HPM_P1;HPM_P2
2021/06/10 00:00:33;;;;;;;9.18;8.00;;;;;;;;;;4896262;29;20056;-36
2021/06/10 00:03:00;;;;;;;8.63;7.50;;;;;;;;;;4896449;29;20053;-36
2021/06/10 00:05:26;;;;;;;8.35;7.55;;;;;;;;;;4896541;29;20044;-36
2021/06/10 00:07:54;;;;;;;8.52;7.65;;;;;;;;;;4908739;29;20060;-36
2021/06/10 00:10:22;;;;;;;12.57;7.75;;;;;;;;;;4915577;29;20067;-36
2021/06/10 00:12:49;;;;;;;8.15;7.35;;;;;;;;;;4914700;29;20130;-36
2021/06/10 00:15:18;;;;;;;9.45;8.40;;;;;;;;;;4888700;29;20508;-36
2021/06/10 00:17:45;;;;;;;8.75;7.95;;;;;;;;;;4886779;29;20109;-36
2021/06/10 00:20:12;;;;;;;9.35;8.45;;;;;;;;;;4879810;29;20411;-36
2021/06/10 00:22:39;;;;;;;9.73;8.73;;;;;;;;;;4885317;29;20191;-36
2021/06/10 00:25:07;;;;;;;10.43;8.98;;;;;;;;;;4888428;29;20448;-36
2021/06/10 00:27:34;;;;;;;9.82;8.93;;;;;;;;;;4885293;29;20064;-36
2021/06/10 00:30:10;;;;;;;9.50;8.50;;;;;;;;;;4880941;29;20599;-37
2021/06/10 00:32:36;;;;;;;10.30;9.30;;;;;;;;;;4880888;29;20132;-36
2021/06/10 00:35:04;;;;;;;10.07;9.07;;;;;;;;;;4883782;29;20447;-36
2021/06/10 00:37:31;;;;;;;11.65;8.88;;;;;;;;;;4881111;29;20089;-36
2021/06/10 00:39:58;;;;;;;10.77;9.68;;;;;;;;;;4881236;29;20468;-36
2021/06/10 00:42:25;;;;;;;10.30;9.00;;;;;;;;;;4880557;29;20591;-37
2021/06/10 00:44:51;;;;;;;10.38;9.30;;;;;;;;;;4895050;29;20045;-36
2021/06/10 00:47:18;;;;;;;10.45;9.45;;;;;;;;;;4895295;29;20434;-36
2021/06/10 00:49:45;;;;;;;9.90;8.98;;;;;;;;;;4881617;29;20076;-37
2021/06/10 00:52:13;;;;;;;9.90;9.00;;;;;;;;;;4900103;29;20057;-36
2021/06/10 00:54:40;;;;;;;10.10;9.10;;;;;;;;;;4918226;29;20088;-36
2021/06/10 00:57:06;;;;;;;10.38;9.38;;;;;;;;;;4905164;29;20509;-36
2021/06/10 00:59:33;;;;;;;10.98;9.50;;;;;;;;;;4880556;29;20231;-37
2021/06/10 01:02:00;;;;;;;10.45;9.43;;;;;;;;;;4880562;29;20049;-37
2021/06/10 01:04:27;;;;;;;11.00;9.70;;;;;;;;;;4880136;29;20423;-36
2021/06/10 01:06:57;;;;;;;9.90;8.90;;;;;;;;;;4882631;29;20061;-35
2021/06/10 01:09:28;;;;;;;10.98;9.93;;;;;;;;;;4899480;29;20053;-35
2021/06/10 01:11:58;;;;;;;10.70;9.70;;;;;;;;;;4899316;29;20463;-36
2021/06/10 01:14:31;;;;;;;12.40;9.95;;;;;;;;;;4900496;29;20057;-36
2021/06/10 01:16:58;;;;;;;;;;;;;;;;;;4882799;29;20128;-36
2021/06/10 01:19:31;;;;;;;12.23;11.00;;;;;;;;;;4903216;23;20019;-36
2021/06/10 01:21:59;;;;;;;11.63;10.43;;;;;;;;;;4918825;29;20462;-36
2021/06/10 01:24:55;;;;;;;12.57;10.80;;;;;;;;;;4917368;29;20422;-35
2021/06/10 01:27:26;;;;;;;11.95;10.75;;;;;;;;;;4866362;29;20078;-35
2021/06/10 01:30:05;;;;;;;11.52;10.43;;;;;;;;;;4906720;29;20633;-36
2021/06/10 01:32:34;;;;;;;12.00;10.80;;;;;;;;;;4896849;29;20056;-36
2021/06/10 01:35:01;;;;;;;11.75;10.55;;;;;;;;;;4898432;29;20131;-35
2021/06/10 01:37:29;;;;;;;13.05;10.60;;;;;;;;;;4898058;29;20108;-35
2021/06/10 01:39:57;;;;;;;12.18;10.88;;;;;;;;;;4898489;29;20083;-35
2021/06/10 01:42:24;;;;;;;12.63;11.43;;;;;;;;;;4911804;29;20143;-36
2021/06/10 01:44:51;;;;;;;12.32;11.13;;;;;;;;;;4905094;29;20123;-36
2021/06/10 01:47:19;;;;;;;16.30;11.40;;;;;;;;;;4908816;29;20475;-37
2021/06/10 01:49:47;;;;;;;12.90;11.60;;;;;;;;;;4916862;29;20051;-36
2021/06/10 01:52:14;;;;;;;12.75;11.45;;;;;;;;;;4916498;29;20088;-37
2021/06/10 01:54:41;;;;;;;13.13;11.68;;;;;;;;;;4914754;29;20064;-36
2021/06/10 01:57:09;;;;;;;12.95;11.65;;;;;;;;;;4897892;29;20100;-36
2021/06/10 01:59:36;;;;;;;12.52;10.52;;;;;;;;;;4914083;29;20078;-36
2021/06/10 02:02:03;;;;;;;12.73;11.43;;;;;;;;;;4916279;29;20107;-38
2021/06/10 02:04:31;;;;;;;12.77;11.48;;;;;;;;;;4915406;29;20115;-36
2021/06/10 02:06:59;;;;;;;12.02;10.93;;;;;;;;;;4917449;29;20095;-36
2021/06/10 02:09:26;;;;;;;11.93;10.73;;;;;;;;;;4916865;29;20052;-36
2021/06/10 02:11:53;;;;;;;12.70;10.80;;;;;;;;;;4916836;29;20083;-36
2021/06/10 02:14:21;;;;;;;13.70;12.30;;;;;;;;;;4902440;29;20049;-36
2021/06/10 02:16:48;;;;;;;12.98;11.63;;;;;;;;;;4914947;29;20052;-36
2021/06/10 02:19:15;;;;;;;15.07;13.48;;;;;;;;;;4897402;29;20063;-36
2021/06/10 02:21:42;;;;;;;14.35;12.85;;;;;;;;;;4897835;29;20518;-36
2021/06/10 02:24:13;;;;;;;14.90;13.27;;;;;;;;;;4897311;29;20632;-36
2021/06/10 02:26:40;;;;;;;14.48;13.05;;;;;;;;;;4896481;29;20052;-37
2021/06/10 02:29:07;;;;;;;14.48;12.40;;;;;;;;;;4897809;29;20076;-36
2021/06/10 02:31:34;;;;;;;13.75;12.35;;;;;;;;;;4897718;29;20083;-37
2021/06/10 02:34:01;;;;;;;15.10;13.48;;;;;;;;;;4910712;29;20183;-35
2021/06/10 02:36:29;;;;;;;14.18;12.77;;;;;;;;;;4897767;29;20052;-36
2021/06/10 02:38:59;;;;;;;15.15;13.13;;;;;;;;;;4897699;29;20742;-35
2021/06/10 02:41:27;;;;;;;14.70;13.20;;;;;;;;;;4896844;29;20085;-37
2021/06/10 02:43:55;;;;;;;13.80;12.40;;;;;;;;;;4900216;29;20115;-37
2021/06/10 02:46:22;;;;;;;14.52;13.10;;;;;;;;;;4915691;29;20185;-37
2021/06/10 02:48:52;;;;;;;13.13;11.77;;;;;;;;;;4902197;29;20045;-36
2021/06/10 02:51:19;;;;;;;15.35;13.75;;;;;;;;;;4916129;29;20123;-36
2021/06/10 02:53:46;;;;;;;14.98;13.45;;;;;;;;;;4915824;29;20138;-36
2021/06/10 02:56:15;;;;;;;14.57;13.07;;;;;;;;;;4912051;29;20131;-36
2021/06/10 02:58:43;;;;;;;15.55;13.38;;;;;;;;;;4896708;29;20087;-36
2021/06/10 03:01:10;;;;;;;15.88;14.27;;;;;;;;;;4896863;29;20459;-35
2021/06/10 03:03:37;;;;;;;15.68;14.10;;;;;;;;;;4896989;29;20155;-36
2021/06/10 03:06:05;;;;;;;19.38;13.82;;;;;;;;;;4900589;29;20059;-36
2021/06/10 03:08:32;;;;;;;15.43;13.82;;;;;;;;;;4915777;29;20134;-36
2021/06/10 03:10:59;;;;;;;17.10;14.52;;;;;;;;;;4915642;29;20072;-36
2021/06/10 03:13:27;;;;;;;15.80;14.20;;;;;;;;;;4903542;29;20395;-37
2021/06/10 03:15:55;;;;;;;14.75;12.93;;;;;;;;;;4896735;29;20418;-36
2021/06/10 03:18:22;;;;;;;15.80;13.98;;;;;;;;;;4896503;29;20504;-37
2021/06/10 03:20:49;;;;;;;16.38;14.02;;;;;;;;;;4909319;29;20106;-36
2021/06/10 03:23:16;;;;;;;15.35;13.65;;;;;;;;;;4927316;29;20056;-37
2021/06/10 03:25:43;;;;;;;15.68;14.10;;;;;;;;;;4908291;29;20083;-36
2021/06/10 03:28:10;;;;;;;15.25;13.57;;;;;;;;;;4896339;29;20116;-37
2021/06/10 03:30:37;;;;;;;15.65;14.05;;;;;;;;;;4896610;29;20084;-36
2021/06/10 03:33:05;;;;;;;15.40;13.90;;;;;;;;;;4896673;29;20060;-37
2021/06/10 03:35:42;;;;;;;16.90;13.82;;;;;;;;;;5109520;27;20165;-36
2021/06/10 03:38:09;;;;;;;16.02;14.32;;;;;;;;;;5109402;28;20233;-36
2021/06/10 03:40:36;;;;;;;15.15;13.68;;;;;;;;;;5099679;28;20079;-37
2021/06/10 03:43:04;;;;;;;14.57;13.18;;;;;;;;;;5088698;28;20071;-36
2021/06/10 03:45:31;;;;;;;14.05;12.55;;;;;;;;;;5109382;28;20036;-37
2021/06/10 03:47:58;;;;;;;14.68;13.18;;;;;;;;;;5099413;28;20040;-37
2021/06/10 03:50:32;;;;;;;14.07;12.57;;;;;;;;;;5088734;28;20048;-36
2021/06/10 03:52:59;;;;;;;15.40;12.65;;;;;;;;;;5088285;28;20076;-37
2021/06/10 03:55:26;;;;;;;14.75;13.27;;;;;;;;;;5088814;28;20060;-36
2021/06/10 03:57:52;;;;;;;14.57;12.95;;;;;;;;;;5105968;28;20037;-36
2021/06/10 04:00:20;;;;;;;15.07;13.50;;;;;;;;;;5129634;27;20048;-37
2021/06/10 04:02:47;;;;;;;13.75;12.35;;;;;;;;;;5129325;27;20047;-37
2021/06/10 04:05:14;;;;;;;14.30;12.77;;;;;;;;;;5118637;27;20055;-37
2021/06/10 04:07:41;;;;;;;13.82;12.25;;;;;;;;;;5108946;28;20109;-37
2021/06/10 04:10:07;;;;;;;13.50;11.82;;;;;;;;;;5109011;28;20075;-37
2021/06/10 04:12:34;;;;;;;13.00;11.70;;;;;;;;;;5108553;28;20126;-37
2021/06/10 04:15:02;;;;;;;13.50;12.13;;;;;;;;;;5099163;28;20069;-38
2021/06/10 04:17:28;;;;;;;14.02;11.50;;;;;;;;;;5088238;28;20051;-38
2021/06/10 04:19:55;;;;;;;15.95;11.63;;;;;;;;;;5089085;28;20505;-38
2021/06/10 04:22:22;;;;;;;13.20;11.80;;;;;;;;;;5087990;28;20106;-38
2021/06/10 04:24:49;;;;;;;12.80;11.32;;;;;;;;;;5088949;28;20048;-38
2021/06/10 04:27:16;;;;;;;13.20;11.50;;;;;;;;;;5087708;28;20052;-38
2021/06/10 04:29:43;;;;;;;12.93;11.63;;;;;;;;;;5089274;28;20078;-38
2021/06/10 04:32:10;;;;;;;12.65;11.40;;;;;;;;;;5089419;28;20537;-38
2021/06/10 04:34:36;;;;;;;12.02;10.70;;;;;;;;;;5086717;28;20131;-38
2021/06/10 04:37:03;;;;;;;13.60;11.32;;;;;;;;;;5088345;28;20829;-38
2021/06/10 04:39:30;;;;;;;13.68;12.05;;;;;;;;;;5088780;28;20045;-38
2021/06/10 04:41:57;;;;;;;12.70;11.40;;;;;;;;;;5088643;28;20040;-38
2021/06/10 04:44:24;;;;;;;13.98;12.10;;;;;;;;;;5099090;28;20067;-38
2021/06/10 04:46:50;;;;;;;13.93;12.55;;;;;;;;;;5096853;28;20079;-38
2021/06/10 04:49:17;;;;;;;13.93;11.80;;;;;;;;;;5080669;28;20048;-38
2021/06/10 04:51:44;;;;;;;13.20;11.60;;;;;;;;;;5079007;28;20053;-38
2021/06/10 04:54:11;;;;;;;13.02;11.80;;;;;;;;;;5076381;28;20072;-37
2021/06/10 04:56:37;;;;;;;12.70;11.40;;;;;;;;;;5076678;28;20080;-37
2021/06/10 04:59:05;;;;;;;13.35;11.95;;;;;;;;;;5079251;28;20072;-37
2021/06/10 05:01:31;;;;;;;14.25;10.77;;;;;;;;;;5082777;28;20498;-37
2021/06/10 05:03:58;;;;;;;15.73;11.45;;;;;;;;;;5083456;28;20052;-37
2021/06/10 05:06:25;;;;;;;13.38;12.07;;;;;;;;;;5099396;28;20128;-37
2021/06/10 05:08:52;;;;;;;12.10;10.82;;;;;;;;;;5103439;28;20052;-37
2021/06/10 05:11:19;;;;;;;12.93;10.65;;;;;;;;;;5102708;28;20114;-37
2021/06/10 05:13:45;;;;;;;12.63;11.32;;;;;;;;;;5088190;28;20106;-37
2021/06/10 05:16:12;;;;;;;12.65;11.45;;;;;;;;;;5075726;28;20425;-37
2021/06/10 05:18:39;;;;;;;12.00;10.88;;;;;;;;;;5074977;28;20072;-37
2021/06/10 05:21:09;;;;;;;12.57;11.27;;;;;;;;;;5075589;28;20505;-37
2021/06/10 05:23:38;;;;;;;15.35;12.05;;;;;;;;;;5090802;28;20491;-37
2021/06/10 05:26:05;;;;;;;12.70;11.23;;;;;;;;;;5094565;28;20052;-37
2021/06/10 05:28:35;;;;;;;13.63;11.68;;;;;;;;;;5076279;28;20114;-37
2021/06/10 05:31:07;;;;;;;13.25;11.88;;;;;;;;;;5074433;28;20558;-37
2021/06/10 05:33:34;;;;;;;14.20;11.85;;;;;;;;;;5081398;28;20048;-37
2021/06/10 05:36:02;;;;;;;14.27;12.77;;;;;;;;;;5080632;28;20043;-37
2021/06/10 05:38:29;;;;;;;14.30;12.32;;;;;;;;;;5074123;28;20045;-37
2021/06/10 05:40:55;;;;;;;15.38;12.95;;;;;;;;;;5074535;28;20461;-36
2021/06/10 05:43:23;;;;;;;15.52;13.30;;;;;;;;;;5073710;28;20100;-37
2021/06/10 05:45:51;;;;;;;15.20;12.25;;;;;;;;;;5074810;28;20147;-37
2021/06/10 05:48:18;;;;;;;14.85;13.25;;;;;;;;;;5081305;28;20059;-37
2021/06/10 05:50:45;;;;;;;14.95;13.35;;;;;;;;;;5082126;28;20112;-38
2021/06/10 05:53:15;;;;;;;15.15;12.80;;;;;;;;;;5079539;28;20045;-37
2021/06/10 05:55:51;;;;;;;14.63;12.77;;;;;;;;;;5076219;28;20071;-38
2021/06/10 05:58:18;;;;;;;13.80;12.25;;;;;;;;;;5072381;28;20040;-37
2021/06/10 06:00:44;;;;;;;13.38;12.02;;;;;;;;;;5073987;28;20068;-37
2021/06/10 06:03:12;;;;;;;14.52;12.93;;;;;;;;;;5073854;28;20044;-37
2021/06/10 06:05:39;;;;;;;14.88;13.38;;;;;;;;;;5073353;28;20135;-37
2021/06/10 06:08:06;;;;;;;14.93;13.10;;;;;;;;;;5091495;28;20052;-37
2021/06/10 06:10:33;;;;;;;14.48;12.82;;;;;;;;;;5081075;28;20547;-38
2021/06/10 06:13:02;;;;;;;15.07;12.75;;;;;;;;;;5074103;28;20048;-37
2021/06/10 06:15:29;;;;;;;17.13;12.75;;;;;;;;;;5073439;28;20053;-38
2021/06/10 06:17:57;;;;;;;16.33;14.55;;;;;;;;;;5072878;28;20052;-37
2021/06/10 06:20:23;;;;;;;17.13;15.32;;;;;;;;;;5072606;28;20070;-37
2021/06/10 06:22:51;;;;;;;15.48;13.93;;;;;;;;;;5071780;28;20536;-37
2021/06/10 06:25:18;;;;;;;16.00;14.23;;;;;;;;;;5073296;28;20048;-37
2021/06/10 06:27:45;;;;;;;15.15;13.50;;;;;;;;;;5072915;28;20052;-37
2021/06/10 06:30:13;;;;;;;16.08;14.27;;;;;;;;;;5077834;28;20507;-38
2021/06/10 06:32:39;;;;;;;14.88;13.30;;;;;;;;;;5077059;28;20052;-37
2021/06/10 06:35:07;;;;;;;15.95;13.93;;;;;;;;;;5076812;28;20098;-37
2021/06/10 06:37:34;;;;;;;16.13;14.25;;;;;;;;;;5083659;28;20048;-37
2021/06/10 06:40:01;;;;;;;16.33;13.60;;;;;;;;;;5076601;28;20066;-38
2021/06/10 06:42:28;;;;;;;16.50;13.48;;;;;;;;;;5082735;28;20123;-37
2021/06/10 06:44:55;;;;;;;15.63;13.52;;;;;;;;;;5073765;28;20099;-38
2021/06/10 06:47:21;;;;;;;14.73;13.07;;;;;;;;;;5073033;28;20080;-37
2021/06/10 06:49:48;;;;;;;13.73;12.32;;;;;;;;;;5072822;28;20068;-37
2021/06/10 06:52:15;;;;;;;13.18;11.85;;;;;;;;;;5071770;28;20076;-37
2021/06/10 06:54:42;;;;;;;13.38;11.98;;;;;;;;;;5071915;28;20483;-37
2021/06/10 06:57:09;;;;;;;13.43;12.13;;;;;;;;;;5077699;28;20068;-38
2021/06/10 06:59:35;;;;;;;13.38;11.40;;;;;;;;;;5082996;28;20080;-38
2021/06/10 07:02:02;;;;;;;11.75;10.55;;;;;;;;;;5071009;28;20123;-38
2021/06/10 07:04:29;;;;;;;12.80;10.18;;;;;;;;;;5070709;28;20053;-38
2021/06/10 07:06:56;;;;;;;11.93;10.73;;;;;;;;;;5081250;28;20127;-38
2021/06/10 07:09:23;;;;;;;12.35;11.10;;;;;;;;;;5086391;28;20131;-41
2021/06/10 07:11:49;;;;;;;12.60;11.30;;;;;;;;;;5072227;28;20225;-38
2021/06/10 07:14:16;;;;;;;13.35;10.55;;;;;;;;;;5081744;28;20055;-38
2021/06/10 07:16:43;;;;;;;11.57;10.48;;;;;;;;;;5072053;28;20076;-38
2021/06/10 07:19:10;;;;;;;12.18;10.13;;;;;;;;;;5073947;28;20143;-37
2021/06/10 07:21:40;;;;;;;13.88;10.88;;;;;;;;;;5082876;28;20123;-37
2021/06/10 07:24:07;;;;;;;11.48;10.38;;;;;;;;;;5086633;28;20135;-37
2021/06/10 07:26:34;;;;;;;12.55;9.98;;;;;;;;;;5091304;28;20126;-37
2021/06/10 07:29:01;;;;;;;11.85;10.20;;;;;;;;;;5084535;28;20187;-37
2021/06/10 07:31:28;;;;;;;11.18;9.98;;;;;;;;;;5086319;28;20048;-37
2021/06/10 07:33:55;;;;;;;11.95;10.70;;;;;;;;;;5085086;28;20102;-37
2021/06/10 07:36:22;;;;;;;13.77;10.02;;;;;;;;;;5091923;28;20091;-37
2021/06/10 07:38:49;;;;;;;12.55;9.40;;;;;;;;;;5084183;28;20064;-39
2021/06/10 07:41:15;;;;;;;9.95;8.82;;;;;;;;;;5086452;28;20044;-38
2021/06/10 07:43:42;;;;;;;10.95;9.38;;;;;;;;;;5091553;28;20146;-39
2021/06/10 07:46:09;;;;;;;11.13;10.02;;;;;;;;;;5081376;28;20117;-39
2021/06/10 07:48:36;;;;;;;10.13;9.13;;;;;;;;;;5080374;28;20064;-39
2021/06/10 07:51:06;;;;;;;11.80;9.38;;;;;;;;;;5074687;28;20048;-39
2021/06/10 07:53:34;;;;;;;11.25;9.35;;;;;;;;;;5085010;28;20044;-39
2021/06/10 07:56:03;;;;;;;11.10;9.32;;;;;;;;;;5077886;28;20048;-39
2021/06/10 07:58:33;;;;;;;10.82;9.70;;;;;;;;;;5084708;28;20052;-39
2021/06/10 08:01:01;;;;;;;11.52;10.43;;;;;;;;;;5071651;28;20055;-39
2021/06/10 08:03:28;;;;;;;11.50;10.32;;;;;;;;;;5073987;28;20502;-39
2021/06/10 08:05:56;;;;;;;11.18;9.82;;;;;;;;;;5076417;28;20064;-39
2021/06/10 08:08:24;;;;;;;11.30;10.00;;;;;;;;;;5091363;28;20052;-39
2021/06/10 08:10:52;;;;;;;11.40;10.30;;;;;;;;;;5073878;28;20052;-40
2021/06/10 08:13:22;;;;;;;11.30;9.80;;;;;;;;;;5076721;28;20079;-38
2021/06/10 08:15:51;;;;;;;11.65;10.55;;;;;;;;;;5081239;28;20110;-39
2021/06/10 08:18:18;;;;;;;11.23;10.13;;;;;;;;;;5088126;28;20044;-39
2021/06/10 08:20:45;;;;;;;11.68;9.55;;;;;;;;;;5082951;28;20101;-38
2021/06/10 08:23:13;;;;;;;11.13;10.13;;;;;;;;;;5088042;28;20068;-40
2021/06/10 08:25:43;;;;;;;10.52;9.18;;;;;;;;;;5092124;28;20048;-39
2021/06/10 08:28:11;;;;;;;12.85;9.88;;;;;;;;;;5091521;28;20059;-39
2021/06/10 08:30:38;;;;;;;11.95;10.65;;;;;;;;;;5087328;28;20083;-38
2021/06/10 08:33:05;;;;;;;11.68;9.45;;;;;;;;;;5088727;28;20096;-40
2021/06/10 08:35:33;;;;;;;10.85;9.73;;;;;;;;;;5073880;28;20063;-39
2021/06/10 08:38:02;;;;;;;13.73;10.32;;;;;;;;;;5058025;28;20482;-40
2021/06/10 08:40:29;;;;;;;15.00;11.05;;;;;;;;;;5075647;28;20053;-38
2021/06/10 08:42:57;;;;;;;12.80;10.80;;;;;;;;;;5084177;28;20064;-41
2021/06/10 08:45:26;;;;;;;10.95;9.85;;;;;;;;;;5077939;28;20044;-41
2021/06/10 08:47:54;;;;;;;11.82;9.80;;;;;;;;;;5079203;28;20045;-41
2021/06/10 08:50:25;;;;;;;12.25;10.38;;;;;;;;;;5087342;28;20056;-39
2021/06/10 08:52:51;;;;;;;11.73;10.55;;;;;;;;;;5073730;28;20700;-41
2021/06/10 08:55:18;;;;;;;11.32;9.88;;;;;;;;;;5074718;28;20056;-41
2021/06/10 08:57:45;;;;;;;11.85;10.50;;;;;;;;;;5075963;28;20048;-41
2021/06/10 09:00:24;;;;;;;10.57;9.48;;;;;;;;;;5079694;28;20512;-43
2021/06/10 09:02:52;;;;;;;11.27;10.18;;;;;;;;;;5074352;28;20494;-40
2021/06/10 09:05:21;;;;;;;12.68;10.50;;;;;;;;;;5086003;22;20269;-35
2021/06/10 09:07:55;;;;;;;10.93;9.82;;;;;;;;;;5043322;28;20115;-36
2021/06/10 09:10:24;;;;;;;11.75;10.55;;;;;;;;;;5053416;28;20123;-37
2021/06/10 09:12:52;;;;;;;10.82;9.57;;;;;;;;;;5049870;28;20049;-36
2021/06/10 09:15:20;;;;;;;10.90;9.80;;;;;;;;;;5027816;28;20080;-36
2021/06/10 09:17:48;;;;;;;10.65;9.40;;;;;;;;;;5070927;28;20118;-37
2021/06/10 09:20:17;;;;;;;10.65;9.55;;;;;;;;;;5071243;28;20072;-36
2021/06/10 09:22:44;;;;;;;10.38;9.38;;;;;;;;;;5054210;28;20045;-36
2021/06/10 09:25:16;;;;;;;9.98;9.07;;;;;;;;;;5067476;28;20450;-36
2021/06/10 09:28:09;;;;;;;10.50;9.02;;;;;;;;;;5064441;28;20045;-36
2021/06/10 09:30:36;;;;;;;;;;;;;;;;;;5070613;28;20113;-37
2021/06/10 09:33:13;;;;;;;12.57;10.73;;;;;;;;;;5071272;28;19930;-36
2021/06/10 09:35:42;;;;;;;13.48;12.07;;;;;;;;;;5061001;28;20091;-36
2021/06/10 09:38:14;;;;;;;11.55;9.60;;;;;;;;;;5067527;28;20163;-36
2021/06/10 09:40:41;;;;;;;9.27;8.13;;;;;;;;;;5073581;28;20583;-37
2021/06/10 09:43:09;;;;;;;10.10;7.50;;;;;;;;;;5070093;28;20053;-37
2021/06/10 09:45:37;;;;;;;7.63;6.90;;;;;;;;;;5057566;28;20076;-37
2021/06/10 09:48:05;;;;;;;10.15;6.55;;;;;;;;;;5069899;28;20056;-37
2021/06/10 09:50:41;;;;;;;7.63;6.40;;;;;;;;;;5039153;28;20058;-37
2021/06/10 09:53:09;;;;;;;7.32;6.63;;;;;;;;;;5053375;28;20151;-37
2021/06/10 09:55:42;;;;;;;8.88;7.97;;;;;;;;;;5069790;28;20044;-37
2021/06/10 09:58:13;;;;;;;9.10;8.30;;;;;;;;;;5050402;28;20102;-37
2021/06/10 10:00:45;;;;;;;8.77;7.88;;;;;;;;;;5069086;28;20056;-37
2021/06/10 10:03:24;;;;;;;7.85;7.05;;;;;;;;;;5050344;28;20052;-38
2021/06/10 10:05:52;;;;;;;8.98;7.63;;;;;;;;;;5059193;28;20421;-38
2021/06/10 10:08:19;;;;;;;8.95;8.05;;;;;;;;;;5052615;28;20536;-38
2021/06/10 10:10:47;;;;;;;8.98;8.07;;;;;;;;;;5055770;28;20063;-37
2021/06/10 10:13:16;;;;;;;10.88;8.77;;;;;;;;;;5067457;28;20413;-38
2021/06/10 10:15:44;;;;;;;9.45;7.78;;;;;;;;;;5073128;28;20557;-38
2021/06/10 10:18:11;;;;;;;8.43;7.53;;;;;;;;;;5064698;28;20276;-38
2021/06/10 10:20:39;;;;;;;8.32;7.47;;;;;;;;;;5066523;28;20091;-37
2021/06/10 10:23:06;;;;;;;7.43;6.72;;;;;;;;;;5071147;28;20049;-37
2021/06/10 10:25:33;;;;;;;7.05;6.35;;;;;;;;;;5068199;28;20044;-38
2021/06/10 10:28:00;;;;;;;8.05;7.18;;;;;;;;;;5066721;28;20462;-38
2021/06/10 10:30:27;;;;;;;8.65;7.50;;;;;;;;;;5070299;28;20072;-38
2021/06/10 10:32:55;;;;;;;8.52;6.65;;;;;;;;;;5053372;28;20486;-37
2021/06/10 10:35:22;;;;;;;7.45;6.50;;;;;;;;;;5070732;28;20459;-37
2021/06/10 10:37:50;;;;;;;8.15;6.65;;;;;;;;;;5060085;28;20057;-37
2021/06/10 10:40:21;;;;;;;7.10;6.40;;;;;;;;;;5053950;28;20049;-37
2021/06/10 10:42:47;;;;;;;9.02;8.13;;;;;;;;;;5041409;28;20061;-38
2021/06/10 10:45:20;;;;;;;8.98;7.85;;;;;;;;;;5053329;28;20041;-38
2021/06/10 10:47:56;;;;;;;10.47;7.27;;;;;;;;;;5061046;28;20033;-37
2021/06/10 10:50:35;;;;;;;11.68;6.95;;;;;;;;;;5048552;28;20102;-37
2021/06/10 10:53:03;;;;;;;7.93;7.13;;;;;;;;;;5067791;28;20135;-38
2021/06/10 10:55:31;;;;;;;8.60;7.00;;;;;;;;;;5040600;28;20617;-37
2021/06/10 10:58:02;;;;;;;7.75;6.88;;;;;;;;;;5062837;28;20425;-38
2021/06/10 11:00:44;;;;;;;6.65;5.97;;;;;;;;;;5069514;28;20063;-37
2021/06/10 11:03:15;;;;;;;6.73;6.13;;;;;;;;;;5070372;28;20068;-37
2021/06/10 11:05:45;;;;;;;5.88;5.35;;;;;;;;;;5060725;28;20320;-38
2021/06/10 11:08:12;;;;;;;5.97;5.38;;;;;;;;;;5091424;28;20421;-37
2021/06/10 11:10:51;;;;;;;6.65;5.50;;;;;;;;;;5059303;28;20048;-37
2021/06/10 11:13:19;;;;;;;6.80;5.80;;;;;;;;;;5070177;28;20067;-37
2021/06/10 11:15:50;;;;;;;7.18;6.47;;;;;;;;;;5035617;28;20090;-37
2021/06/10 11:18:35;;;;;;;9.60;6.07;;;;;;;;;;5049702;28;20493;-37
2021/06/10 11:21:02;;;;;;;6.20;5.60;;;;;;;;;;5048871;28;20154;-37
2021/06/10 11:23:29;;;;;;;7.90;7.10;;;;;;;;;;5069359;28;20068;-37
2021/06/10 11:25:58;;;;;;;6.80;6.18;;;;;;;;;;5069160;28;20080;-38
2021/06/10 11:28:29;;;;;;;8.73;7.15;;;;;;;;;;5071100;28;20049;-38
2021/06/10 11:31:33;;;;;;;8.00;7.15;;;;;;;;;;5044557;28;20056;-38
2021/06/10 11:34:19;;;;;;;9.10;7.18;;;;;;;;;;4969837;28;20059;-37
2021/06/10 11:36:52;;;;;;;9.32;6.50;;;;;;;;;;5065341;28;20040;-37
2021/06/10 11:39:19;;;;;;;7.65;6.60;;;;;;;;;;5068873;28;20043;-37
2021/06/10 11:41:46;;;;;;;8.18;7.35;;;;;;;;;;5064893;28;20117;-37
2021/06/10 11:44:13;;;;;;;7.97;6.05;;;;;;;;;;5069373;28;20064;-37
2021/06/10 11:46:42;;;;;;;6.68;5.75;;;;;;;;;;5069828;28;20048;-38
2021/06/10 11:49:11;;;;;;;6.70;6.10;;;;;;;;;;5062445;28;20053;-38
2021/06/10 11:51:38;;;;;;;6.88;5.78;;;;;;;;;;5052846;28;20117;-38
2021/06/10 11:54:06;;;;;;;6.57;5.78;;;;;;;;;;5072595;28;20271;-38
2021/06/10 11:56:33;;;;;;;7.07;5.95;;;;;;;;;;5084149;28;20075;-37
2021/06/10 11:59:17;;;;;;;6.05;5.45;;;;;;;;;;5066612;28;20099;-37
2021/06/10 12:01:57;;;;;;;6.28;5.68;;;;;;;;;;5067979;28;20113;-37
2021/06/10 12:04:31;;;;;;;6.93;6.22;;;;;;;;;;5065379;28;20072;-38
2021/06/10 12:07:04;;;;;;;6.75;6.13;;;;;;;;;;5047068;28;20482;-38
2021/06/10 12:09:31;;;;;;;7.07;6.13;;;;;;;;;;5048657;28;20509;-38
2021/06/10 12:11:58;;;;;;;6.97;6.28;;;;;;;;;;5074229;28;20156;-38
2021/06/10 12:14:40;;;;;;;6.43;5.82;;;;;;;;;;5068108;28;20058;-38
2021/06/10 12:17:08;;;;;;;7.50;5.93;;;;;;;;;;5060575;28;20147;-38
2021/06/10 12:19:34;;;;;;;7.38;5.85;;;;;;;;;;5064158;28;20460;-38
2021/06/10 12:22:02;;;;;;;6.47;5.70;;;;;;;;;;5073830;28;20041;-38
2021/06/10 12:24:41;;;;;;;6.30;5.60;;;;;;;;;;5073616;28;20091;-37
2021/06/10 12:27:15;;;;;;;6.05;5.07;;;;;;;;;;5054608;28;20074;-37
2021/06/10 12:29:52;;;;;;;6.07;5.47;;;;;;;;;;5053375;28;20049;-38
2021/06/10 12:32:25;;;;;;;6.00;5.38;;;;;;;;;;5055047;28;20110;-38
2021/06/10 12:34:53;;;;;;;5.97;5.38;;;;;;;;;;5046603;28;20068;-37
2021/06/10 12:37:20;;;;;;;5.78;5.28;;;;;;;;;;5072633;28;20057;-37
2021/06/10 12:39:47;;;;;;;6.20;5.60;;;;;;;;;;5072123;28;20053;-38
2021/06/10 12:42:13;;;;;;;5.88;5.38;;;;;;;;;;5073756;28;20056;-38
2021/06/10 12:44:41;;;;;;;7.75;5.13;;;;;;;;;;5073690;28;20446;-37
2021/06/10 12:47:07;;;;;;;5.90;5.40;;;;;;;;;;5072580;28;20052;-37
2021/06/10 12:49:39;;;;;;;5.97;5.35;;;;;;;;;;5066751;28;20139;-37
2021/06/10 12:52:17;;;;;;;6.57;5.80;;;;;;;;;;5070558;28;20416;-37
2021/06/10 12:54:48;;;;;;;6.07;5.47;;;;;;;;;;5047516;28;20155;-37
2021/06/10 12:57:25;;;;;;;5.80;5.30;;;;;;;;;;5069897;28;20037;-37
2021/06/10 12:59:52;;;;;;;6.57;5.97;;;;;;;;;;5059891;28;20040;-37
2021/06/10 13:02:21;;;;;;;5.90;5.30;;;;;;;;;;5070396;28;20033;-37
2021/06/10 13:04:48;;;;;;;5.95;5.25;;;;;;;;;;5072423;28;20052;-37
2021/06/10 13:07:31;;;;;;;4.97;4.30;;;;;;;;;;5071919;28;20107;-37
2021/06/10 13:09:59;;;;;;;6.03;5.40;;;;;;;;;;5075000;28;20415;-38
2021/06/10 13:12:30;;;;;;;6.00;5.43;;;;;;;;;;5073424;28;20391;-38
2021/06/10 13:15:05;;;;;;;6.00;5.40;;;;;;;;;;5055666;28;20049;-38
2021/06/10 13:17:45;;;;;;;5.53;5.03;;;;;;;;;;5058660;28;20514;-37
2021/06/10 13:20:12;;;;;;;7.03;5.82;;;;;;;;;;5057023;28;20452;-38
2021/06/10 13:22:39;;;;;;;6.47;5.25;;;;;;;;;;5070302;28;20138;-38
2021/06/10 13:25:10;;;;;;;5.68;5.00;;;;;;;;;;5066703;28;20217;-37
2021/06/10 13:27:37;;;;;;;5.28;4.75;;;;;;;;;;5064114;28;20121;-36
2021/06/10 13:30:04;;;;;;;5.95;5.35;;;;;;;;;;5062362;28;20978;-37
2021/06/10 13:32:34;;;;;;;6.28;5.65;;;;;;;;;;5047160;28;20084;-37
2021/06/10 13:37:31;;;;;;;9.15;5.38;;;;;;;;;;5066323;28;20040;-38
2021/06/10 13:39:58;;;;;;;6.03;5.13;;;;;;;;;;5065673;28;20076;-37
2021/06/10 13:42:27;;;;;;;6.68;4.88;;;;;;;;;;5048765;28;20040;-37
2021/06/10 13:44:55;;;;;;;6.15;5.55;;;;;;;;;;5064410;28;20072;-36
2021/06/10 13:47:21;;;;;;;6.18;5.57;;;;;;;;;;5045389;28;20052;-37
2021/06/10 13:49:49;;;;;;;5.60;5.10;;;;;;;;;;5066502;28;20059;-37
2021/06/10 13:52:16;;;;;;;6.63;5.63;;;;;;;;;;5065085;28;20044;-38
2021/06/10 13:54:43;;;;;;;5.43;4.93;;;;;;;;;;5065340;28;20109;-38
2021/06/10 13:57:11;;;;;;;5.70;5.20;;;;;;;;;;5063632;28;20360;-38
2021/06/10 13:59:39;;;;;;;5.40;4.82;;;;;;;;;;5042178;28;20082;-38
2021/06/10 14:02:06;;;;;;;5.53;4.60;;;;;;;;;;5065918;28;20094;-38
2021/06/10 14:04:33;;;;;;;5.28;4.78;;;;;;;;;;5066011;28;21964;-38
2021/06/10 14:07:00;;;;;;;5.43;4.93;;;;;;;;;;5063378;28;20102;-38
2021/06/10 14:09:27;;;;;;;6.25;5.25;;;;;;;;;;5064239;28;20052;-39
2021/06/10 14:11:54;;;;;;;5.10;4.45;;;;;;;;;;5065628;28;20589;-38
2021/06/10 14:14:21;;;;;;;5.38;4.20;;;;;;;;;;5066502;28;20048;-37
2021/06/10 14:16:48;;;;;;;5.47;4.97;;;;;;;;;;5068015;28;20111;-37
2021/06/10 14:19:18;;;;;;;5.30;4.30;;;;;;;;;;5048698;28;20185;-37
2021/06/10 14:21:46;;;;;;;5.55;4.13;;;;;;;;;;5070395;28;20056;-37
2021/06/10 14:24:13;;;;;;;4.95;4.10;;;;;;;;;;5067136;28;20482;-36
2021/06/10 14:26:40;;;;;;;4.97;4.32;;;;;;;;;;5063257;28;20152;-36
2021/06/10 14:29:09;;;;;;;7.15;4.43;;;;;;;;;;5046389;28;20049;-36
2021/06/10 14:34:20;;;;;;;4.70;4.03;;;;;;;;;;5061116;28;20041;-37
2021/06/10 14:36:49;;;;;;;6.25;4.20;;;;;;;;;;5066832;28;20056;-37
2021/06/10 14:39:16;;;;;;;5.60;4.43;;;;;;;;;;5067875;28;20099;-36
2021/06/10 14:41:43;;;;;;;4.88;4.07;;;;;;;;;;5068744;28;20040;-36